Time;durP1;ratioP1;P1;durP2;ratioP2;P2;SDS_P1;SDS_P2;PMS_P1;PMS_P2;Temp;Humidity;BMP_temperature;BMP_pressure;BME280_temperature;BME280_humidity;BME280_pressure;Samples;Min_cycle;Max_cycle;Signal;HPM_P1;HPM_P2
2023/04/26 00:00:23;;;;;;;7.68;2.92;;;;;;;4.62;92.34;102065.94;5075075;28;20458;-68
2023/04/26 00:02:49;;;;;;;11.77;3.15;;;;;;;4.71;91.81;102064.31;5081631;28;20031;-68
2023/04/26 00:05:15;;;;;;;12.00;3.27;;;;;;;4.69;91.46;102061.72;5075087;28;20481;-68
2023/04/26 00:07:41;;;;;;;8.45;3.30;;;;;;;4.74;91.40;102058.59;5077567;28;20118;-68
2023/04/26 00:10:08;;;;;;;7.97;3.25;;;;;;;4.67;91.90;102055.56;5072574;28;20036;-68
2023/04/26 00:12:35;;;;;;;11.30;3.53;;;;;;;4.72;91.85;102060.59;5075031;28;20059;-68
2023/04/26 00:15:00;;;;;;;12.60;3.60;;;;;;;4.73;93.85;102067.75;5074711;28;20029;-68
2023/04/26 00:17:26;;;;;;;15.00;3.70;;;;;;;4.65;92.00;102068.38;5074170;28;20480;-68
2023/04/26 00:19:51;;;;;;;7.38;3.30;;;;;;;4.63;93.40;102067.66;5070190;28;20136;-68
2023/04/26 00:22:16;;;;;;;8.65;3.60;;;;;;;4.58;93.88;102066.31;5079633;28;20028;-68
2023/04/26 00:24:42;;;;;;;17.77;3.45;;;;;;;4.51;94.45;102062.41;5074701;28;21278;-67
2023/04/26 00:27:09;;;;;;;7.50;3.08;;;;;;;4.45;94.17;102060.22;5081129;28;20362;-68
2023/04/26 00:29:36;;;;;;;8.23;3.13;;;;;;;4.36;95.25;102066.41;5074552;28;20086;-69
2023/04/26 00:32:01;;;;;;;10.38;3.90;;;;;;;4.24;95.50;102057.44;5081663;28;20386;-68
2023/04/26 00:34:36;;;;;;;9.75;3.67;;;;;;;4.23;95.88;102065.72;5077028;28;20031;-68
2023/04/26 00:37:03;;;;;;;13.95;3.15;;;;;;;4.17;96.85;102064.34;5057897;28;20035;-69
2023/04/26 00:39:29;;;;;;;14.93;3.80;;;;;;;4.06;96.70;102066.25;5072655;28;20025;-68
2023/04/26 00:41:55;;;;;;;9.68;3.40;;;;;;;3.96;97.83;102066.09;5079206;28;20073;-69
2023/04/26 00:44:20;;;;;;;11.82;3.17;;;;;;;3.85;97.32;102070.69;5075827;28;20121;-69
2023/04/26 00:46:46;;;;;;;10.25;3.50;;;;;;;3.89;97.60;102073.03;5075683;28;20036;-68
2023/04/26 00:49:20;;;;;;;9.85;3.00;;;;;;;3.96;97.15;102067.97;5081622;28;20036;-68
2023/04/26 00:51:47;;;;;;;10.45;3.67;;;;;;;4.01;97.05;102060.34;5084108;28;20020;-68
2023/04/26 00:54:13;;;;;;;9.73;3.40;;;;;;;4.10;96.07;102059.56;5080596;28;20103;-68
2023/04/26 00:56:40;;;;;;;12.35;3.55;;;;;;;4.09;96.21;102065.97;5079818;28;20531;-68
2023/04/26 00:59:06;;;;;;;7.78;2.90;;;;;;;4.06;96.15;102060.81;5081428;28;20029;-68
2023/04/26 01:01:32;;;;;;;8.25;2.65;;;;;;;4.13;96.07;102059.31;5085222;28;20023;-68
2023/04/26 01:03:58;;;;;;;10.55;2.90;;;;;;;4.12;96.03;102054.88;5080855;28;20040;-69
2023/04/26 01:06:24;;;;;;;11.02;3.92;;;;;;;4.05;96.26;102050.94;5085645;28;20028;-69
2023/04/26 01:08:56;;;;;;;9.25;2.28;;;;;;;4.01;96.24;102055.75;5074187;28;20025;-68
2023/04/26 01:11:22;;;;;;;8.88;2.47;;;;;;;3.94;96.41;102059.09;5075605;28;20035;-68
2023/04/26 01:13:50;;;;;;;8.33;2.93;;;;;;;3.82;96.67;102063.69;5073861;28;20024;-69
2023/04/26 01:16:18;;;;;;;14.80;3.05;;;;;;;3.73;97.48;102053.56;5076975;28;20106;-68
2023/04/26 01:18:50;;;;;;;5.97;2.60;;;;;;;3.72;97.79;102057.28;5080507;28;20062;-69
2023/04/26 01:21:21;;;;;;;7.88;2.55;;;;;;;3.66;98.99;102065.03;5082766;28;20857;-68
2023/04/26 01:23:47;;;;;;;11.43;3.13;;;;;;;3.64;98.96;102075.13;5076452;28;20032;-68
2023/04/26 01:26:12;;;;;;;8.48;2.70;;;;;;;3.53;100.00;102070.56;5064002;28;20036;-68
2023/04/26 01:28:38;;;;;;;7.68;3.25;;;;;;;3.51;100.00;102071.66;5073303;28;20035;-68
2023/04/26 01:31:03;;;;;;;9.00;2.83;;;;;;;3.45;100.00;102066.75;5074586;28;20807;-68
2023/04/26 01:33:29;;;;;;;5.88;2.90;;;;;;;3.41;100.00;102068.84;5076427;28;20024;-67
2023/04/26 01:35:54;;;;;;;14.40;2.53;;;;;;;3.43;100.00;102075.00;5075749;28;20036;-67
2023/04/26 01:38:20;;;;;;;9.25;3.10;;;;;;;3.40;100.00;102072.53;5080740;28;20420;-68
2023/04/26 01:40:45;;;;;;;7.63;3.17;;;;;;;3.38;100.00;102070.94;5083920;28;20791;-69
2023/04/26 01:43:11;;;;;;;9.52;3.45;;;;;;;3.29;100.00;102075.25;5078900;28;20017;-68
2023/04/26 01:45:36;;;;;;;10.32;2.83;;;;;;;3.31;100.00;102072.41;5081512;28;20048;-68
2023/04/26 01:48:02;;;;;;;6.45;2.80;;;;;;;3.28;100.00;102067.22;5079758;28;20470;-68
2023/04/26 01:50:27;;;;;;;8.93;3.30;;;;;;;3.23;100.00;102069.44;5076413;28;20489;-68
2023/04/26 01:52:52;;;;;;;7.40;3.30;;;;;;;3.21;100.00;102061.44;5080893;28;20077;-68
2023/04/26 01:55:18;;;;;;;9.40;3.72;;;;;;;3.17;100.00;102064.50;5073791;28;20047;-68
2023/04/26 01:57:43;;;;;;;9.65;3.00;;;;;;;3.08;100.00;102066.09;5081074;28;20031;-68
2023/04/26 02:00:10;;;;;;;9.48;2.60;;;;;;;3.05;100.00;102071.72;5076791;28;20028;-67
2023/04/26 02:02:35;;;;;;;11.98;3.13;;;;;;;3.00;100.00;102073.09;5075138;28;20035;-68
2023/04/26 02:05:01;;;;;;;10.45;3.00;;;;;;;2.99;100.00;102066.78;5066667;28;20088;-68
2023/04/26 02:07:26;;;;;;;9.93;4.35;;;;;;;2.94;100.00;102073.56;5082212;28;20515;-68
2023/04/26 02:09:51;;;;;;;8.80;3.42;;;;;;;2.90;100.00;102066.66;5083452;28;20024;-68
2023/04/26 02:12:17;;;;;;;7.82;3.03;;;;;;;2.87;100.00;102075.00;5081665;28;20031;-68
2023/04/26 02:14:43;;;;;;;10.48;2.97;;;;;;;2.85;100.00;102072.44;5071019;28;20529;-66
2023/04/26 02:17:09;;;;;;;10.52;3.40;;;;;;;2.83;100.00;102070.81;5078459;28;20523;-68
2023/04/26 02:19:34;;;;;;;12.63;3.40;;;;;;;2.83;100.00;102073.53;5075187;28;20036;-67
2023/04/26 02:22:00;;;;;;;11.85;3.67;;;;;;;2.81;100.00;102065.53;5076899;28;20040;-67
2023/04/26 02:24:25;;;;;;;4.40;3.45;;;;;;;2.78;100.00;102075.72;5075549;28;20047;-68
2023/04/26 02:26:53;;;;;;;12.35;4.20;;;;;;;2.75;100.00;102068.72;5080999;28;20024;-67
2023/04/26 02:29:18;;;;;;;9.43;3.45;;;;;;;2.74;100.00;102066.09;5080612;28;20129;-68
2023/04/26 02:31:44;;;;;;;10.93;3.58;;;;;;;2.74;100.00;102072.38;5078548;28;20058;-67
2023/04/26 02:34:09;;;;;;;13.32;3.50;;;;;;;2.68;100.00;102063.88;5077791;28;20110;-67
2023/04/26 02:36:35;;;;;;;14.40;4.15;;;;;;;2.67;100.00;102067.56;5082046;28;20024;-67
2023/04/26 02:39:00;;;;;;;8.38;3.65;;;;;;;2.64;100.00;102065.09;5074693;28;20028;-71
2023/04/26 02:41:26;;;;;;;11.60;4.00;;;;;;;2.61;100.00;102065.31;5078640;28;20112;-71
2023/04/26 02:43:51;;;;;;;6.63;3.20;;;;;;;2.54;100.00;102047.84;5076164;28;20035;-72
2023/04/26 02:46:17;;;;;;;6.97;2.85;;;;;;;2.51;100.00;102059.75;5074875;28;20034;-71
2023/04/26 02:48:43;;;;;;;7.25;3.58;;;;;;;2.49;100.00;102053.59;5073982;28;20461;-71
2023/04/26 02:51:08;;;;;;;15.95;3.38;;;;;;;2.43;100.00;102055.91;5079718;28;20039;-71
2023/04/26 02:53:34;;;;;;;7.43;4.40;;;;;;;2.40;100.00;102051.56;5076477;28;20473;-71
2023/04/26 02:56:00;;;;;;;9.68;4.15;;;;;;;2.37;100.00;102043.72;5078104;28;20044;-68
2023/04/26 02:58:25;;;;;;;12.00;3.40;;;;;;;2.40;100.00;102048.03;5077478;28;20447;-69
2023/04/26 03:00:53;;;;;;;9.40;4.35;;;;;;;2.37;100.00;102049.13;5075359;28;20070;-69
2023/04/26 03:03:19;;;;;;;9.70;3.90;;;;;;;2.35;100.00;102048.34;5074105;28;20093;-67
2023/04/26 03:05:45;;;;;;;11.70;4.53;;;;;;;2.30;100.00;102049.69;5078711;28;20043;-69
2023/04/26 03:08:10;;;;;;;10.35;4.13;;;;;;;2.30;100.00;102049.69;5072560;28;20032;-68
2023/04/26 03:10:36;;;;;;;12.57;3.85;;;;;;;2.29;100.00;102051.53;5077336;28;20515;-68
2023/04/26 03:13:02;;;;;;;8.27;3.92;;;;;;;2.26;100.00;102048.19;5073814;28;20020;-69
2023/04/26 03:15:28;;;;;;;8.52;3.97;;;;;;;2.32;100.00;102048.59;5077027;28;20052;-68
2023/04/26 03:17:53;;;;;;;6.28;4.35;;;;;;;2.30;100.00;102050.53;5071786;28;20108;-68
2023/04/26 03:20:19;;;;;;;8.30;4.30;;;;;;;2.36;100.00;102049.25;5075929;28;20107;-68
2023/04/26 03:22:45;;;;;;;8.85;4.65;;;;;;;2.35;100.00;102045.66;5078838;28;20105;-68
2023/04/26 03:25:10;;;;;;;13.48;5.25;;;;;;;2.37;100.00;102049.13;5074125;28;20553;-68
2023/04/26 03:27:36;;;;;;;15.30;5.20;;;;;;;2.38;100.00;102041.84;5083680;28;20119;-68
2023/04/26 03:30:02;;;;;;;10.75;5.15;;;;;;;2.47;100.00;102039.31;5072592;28;20396;-69
2023/04/26 03:32:28;;;;;;;14.15;5.63;;;;;;;2.50;100.00;102030.09;5064793;28;20021;-68
2023/04/26 03:34:53;;;;;;;12.50;5.53;;;;;;;2.49;100.00;102036.50;5074653;28;20032;-68
2023/04/26 03:37:19;;;;;;;8.85;6.07;;;;;;;2.48;100.00;102038.34;5082496;28;20150;-68
2023/04/26 03:39:44;;;;;;;8.80;5.28;;;;;;;2.45;100.00;102029.59;5076514;28;20077;-68
2023/04/26 03:42:10;;;;;;;10.27;6.00;;;;;;;2.53;100.00;102038.88;5082322;28;20098;-68
2023/04/26 03:44:35;;;;;;;11.52;5.60;;;;;;;2.50;100.00;102035.50;5075493;28;20032;-68
2023/04/26 03:47:01;;;;;;;10.68;5.28;;;;;;;2.51;100.00;102035.41;5075013;28;20052;-68
2023/04/26 03:49:26;;;;;;;13.13;5.88;;;;;;;2.47;100.00;102035.78;5078617;28;20123;-67
2023/04/26 03:51:52;;;;;;;11.82;5.47;;;;;;;2.46;100.00;102029.47;5077898;28;20024;-70
2023/04/26 03:54:17;;;;;;;12.27;6.30;;;;;;;2.46;100.00;102031.34;5072944;28;20031;-67
2023/04/26 03:56:43;;;;;;;8.13;5.60;;;;;;;2.41;100.00;102023.56;5078118;28;20501;-68
2023/04/26 03:59:08;;;;;;;12.63;5.90;;;;;;;2.42;100.00;102024.44;5074229;28;20044;-67
2023/04/26 04:01:35;;;;;;;12.65;6.13;;;;;;;2.38;100.00;102025.63;5072939;28;20501;-67
2023/04/26 04:04:00;;;;;;;14.30;5.95;;;;;;;2.29;100.00;102023.63;5071617;28;20029;-67
2023/04/26 04:06:26;;;;;;;8.68;5.32;;;;;;;2.27;100.00;102021.06;5080900;28;20046;-67
2023/04/26 04:08:51;;;;;;;8.23;5.70;;;;;;;2.25;100.00;102023.00;5068248;28;20071;-67
2023/04/26 04:11:17;;;;;;;9.52;6.80;;;;;;;2.26;100.00;102022.00;5080456;28;20024;-67
2023/04/26 04:13:42;;;;;;;16.08;7.45;;;;;;;2.29;100.00;102024.50;5072051;28;20024;-67
2023/04/26 04:16:09;;;;;;;11.98;6.95;;;;;;;2.32;100.00;102029.69;5069557;28;20025;-67
2023/04/26 04:18:35;;;;;;;21.52;7.25;;;;;;;2.33;100.00;102035.94;5077846;28;20048;-67
2023/04/26 04:21:01;;;;;;;11.15;6.63;;;;;;;2.38;100.00;102031.91;5077690;28;20060;-66
2023/04/26 04:23:26;;;;;;;16.67;6.97;;;;;;;2.46;100.00;102034.88;5076383;28;20108;-68
2023/04/26 04:25:52;;;;;;;11.98;7.20;;;;;;;2.56;100.00;102035.91;5077683;28;20120;-68
2023/04/26 04:28:17;;;;;;;13.98;7.03;;;;;;;2.62;100.00;102043.56;5078169;28;20082;-68
2023/04/26 04:30:43;;;;;;;14.85;7.70;;;;;;;2.69;100.00;102043.97;5072709;28;20237;-75
2023/04/26 04:33:09;;;;;;;15.80;8.95;;;;;;;2.76;100.00;102039.78;5073790;28;20029;-75
2023/04/26 04:35:34;;;;;;;16.23;9.40;;;;;;;2.84;100.00;102038.22;5072948;28;20447;-74
2023/04/26 04:38:00;;;;;;;14.20;8.15;;;;;;;2.90;100.00;102039.59;5077809;28;20012;-74
2023/04/26 04:40:27;;;;;;;14.45;8.00;;;;;;;2.96;100.00;102036.41;5074684;28;20036;-74
2023/04/26 04:42:53;;;;;;;;;;;;;;;3.02;100.00;102046.75;5073771;28;20046;-73
2023/04/26 04:45:20;;;;;;;15.90;8.70;;;;;;;3.09;100.00;102045.28;5071586;28;20315;-73
2023/04/26 04:47:46;;;;;;;16.48;7.88;;;;;;;3.14;100.00;102037.66;5070440;28;20033;-73
2023/04/26 04:50:12;;;;;;;13.77;7.72;;;;;;;3.16;100.00;102044.69;5082313;28;20115;-73
2023/04/26 04:52:37;;;;;;;13.45;7.20;;;;;;;3.18;100.00;102042.72;5073061;28;20106;-73
2023/04/26 04:55:03;;;;;;;17.25;7.68;;;;;;;3.27;100.00;102043.84;5062887;28;20470;-73
2023/04/26 04:57:30;;;;;;;16.50;7.50;;;;;;;3.20;100.00;102037.22;5056381;28;20491;-74
2023/04/26 04:59:56;;;;;;;12.27;6.88;;;;;;;3.24;100.00;102044.06;5047073;28;20029;-73
2023/04/26 05:02:21;;;;;;;14.98;7.72;;;;;;;3.24;100.00;102041.38;5050028;28;20093;-73
2023/04/26 05:04:46;;;;;;;14.48;7.43;;;;;;;3.31;100.00;102045.34;5057816;28;20077;-74
2023/04/26 05:07:14;;;;;;;12.38;6.65;;;;;;;3.33;100.00;102043.34;5043406;28;20040;-73
2023/04/26 05:09:41;;;;;;;17.88;7.15;;;;;;;3.43;100.00;102050.63;5046067;28;20056;-74
2023/04/26 05:12:06;;;;;;;15.90;7.25;;;;;;;3.49;100.00;102035.72;5052561;28;20076;-74
2023/04/26 05:14:32;;;;;;;19.63;7.25;;;;;;;3.53;100.00;102029.09;5054754;28;20493;-74
2023/04/26 05:16:57;;;;;;;14.70;7.40;;;;;;;3.63;100.00;102041.75;5046603;28;20036;-74
2023/04/26 05:19:23;;;;;;;13.27;7.25;;;;;;;3.69;100.00;102037.72;5050215;28;20028;-75
2023/04/26 05:21:49;;;;;;;13.23;6.97;;;;;;;3.84;100.00;102039.19;5056525;28;20425;-73
2023/04/26 05:24:15;;;;;;;23.15;7.10;;;;;;;3.93;100.00;102038.41;5050876;28;20044;-73
2023/04/26 05:26:41;;;;;;;11.98;7.07;;;;;;;4.08;100.00;102051.56;5051601;28;20394;-73
2023/04/26 05:29:06;;;;;;;15.90;7.03;;;;;;;4.27;100.00;102046.34;5052785;28;20387;-73
2023/04/26 05:31:32;;;;;;;13.40;6.68;;;;;;;4.50;100.00;102052.56;5058217;28;20031;-74
2023/04/26 05:33:57;;;;;;;20.63;7.55;;;;;;;4.70;100.00;102049.03;5051425;28;20123;-73
2023/04/26 05:36:22;;;;;;;14.30;7.13;;;;;;;4.91;100.00;102045.31;5059578;28;20115;-73
2023/04/26 05:38:48;;;;;;;15.15;6.20;;;;;;;5.07;100.00;102048.44;5052456;28;20406;-74
2023/04/26 05:41:13;;;;;;;15.63;6.35;;;;;;;5.28;100.00;102048.44;5058240;28;20024;-74
2023/04/26 05:43:39;;;;;;;17.15;6.22;;;;;;;5.46;100.00;102046.81;5050992;28;20025;-74
2023/04/26 05:46:04;;;;;;;14.30;6.25;;;;;;;5.59;100.00;102055.59;5061327;28;20119;-73
2023/04/26 05:48:30;;;;;;;20.10;6.57;;;;;;;5.75;99.71;102047.78;5054520;28;20486;-74
2023/04/26 05:50:55;;;;;;;17.33;6.10;;;;;;;5.90;98.71;102063.66;5060433;28;20037;-73
2023/04/26 05:53:21;;;;;;;19.45;6.97;;;;;;;5.95;97.07;102060.50;5059988;28;20076;-74
2023/04/26 05:55:46;;;;;;;23.70;7.38;;;;;;;6.01;97.02;102068.09;5064292;28;20052;-74
2023/04/26 05:58:12;;;;;;;18.80;8.02;;;;;;;6.15;95.70;102063.13;5073076;28;20020;-74
2023/04/26 06:00:38;;;;;;;16.45;8.30;;;;;;;6.29;95.26;102064.59;5075409;28;20481;-74
2023/04/26 06:03:04;;;;;;;20.80;6.93;;;;;;;6.44;92.37;102068.63;5070765;28;20126;-74
2023/04/26 06:05:30;;;;;;;19.17;8.27;;;;;;;6.45;92.95;102068.50;5081794;28;20424;-74
2023/04/26 06:07:56;;;;;;;20.67;8.00;;;;;;;6.44;94.13;102071.34;5068561;28;20103;-75
2023/04/26 06:10:21;;;;;;;16.45;8.25;;;;;;;6.48;94.73;102064.63;5078045;28;20035;-73
2023/04/26 06:12:47;;;;;;;23.58;9.15;;;;;;;6.59;93.43;102067.22;5083707;28;20024;-74
2023/04/26 06:15:13;;;;;;;24.23;7.93;;;;;;;6.66;94.19;102071.09;5073676;28;20375;-74
2023/04/26 06:17:39;;;;;;;18.90;8.27;;;;;;;6.76;93.98;102078.28;5071334;28;20044;-74
2023/04/26 06:20:05;;;;;;;17.90;8.82;;;;;;;6.90;91.56;102087.88;5074068;28;20024;-74
2023/04/26 06:22:31;;;;;;;16.30;8.38;;;;;;;6.96;90.69;102077.28;5073124;28;20494;-73
2023/04/26 06:24:56;;;;;;;20.77;9.18;;;;;;;7.00;91.03;102080.56;5071867;28;20060;-73
2023/04/26 06:27:22;;;;;;;18.38;9.45;;;;;;;7.11;91.07;102099.50;5074687;28;20246;-73
2023/04/26 06:29:47;;;;;;;23.48;10.98;;;;;;;7.11;90.30;102091.31;5075196;28;20028;-73
2023/04/26 06:32:12;;;;;;;20.00;10.50;;;;;;;7.21;90.86;102093.00;5077029;28;20385;-74
2023/04/26 06:34:38;;;;;;;25.33;10.27;;;;;;;7.32;90.45;102092.00;5070334;28;20125;-74
2023/04/26 06:37:04;;;;;;;15.75;9.48;;;;;;;7.34;90.05;102098.16;5079510;28;20030;-74
2023/04/26 06:39:29;;;;;;;24.40;10.73;;;;;;;7.30;90.86;102083.97;5069889;28;21649;-73
2023/04/26 06:41:55;;;;;;;17.90;10.80;;;;;;;7.37;91.18;102087.00;5072140;28;20016;-74
2023/04/26 06:44:20;;;;;;;21.98;10.73;;;;;;;7.52;90.60;102080.91;5070177;28;20043;-74
2023/04/26 06:46:46;;;;;;;25.00;9.60;;;;;;;7.62;89.88;102089.94;5082272;28;20039;-74
2023/04/26 06:49:11;;;;;;;23.73;9.85;;;;;;;7.80;88.31;102087.28;5069676;28;20021;-75
2023/04/26 06:51:36;;;;;;;22.70;9.85;;;;;;;8.21;87.25;102081.38;5072023;28;20021;-74
2023/04/26 06:54:02;;;;;;;17.52;9.85;;;;;;;8.91;87.19;102084.22;5066509;28;20100;-74
2023/04/26 06:56:27;;;;;;;18.67;9.68;;;;;;;9.73;83.57;102082.81;5070648;28;20049;-74
2023/04/26 06:59:02;;;;;;;29.05;9.02;;;;;;;10.10;79.81;102075.19;5064458;28;20031;-74
2023/04/26 07:01:28;;;;;;;17.73;7.55;;;;;;;10.13;79.28;102085.78;5075098;28;20043;-75
2023/04/26 07:03:55;;;;;;;20.75;7.72;;;;;;;9.97;78.15;102083.81;5066803;28;20032;-74
2023/04/26 07:06:22;;;;;;;20.95;6.70;;;;;;;9.63;76.15;102079.31;5071080;28;20060;-74
2023/04/26 07:08:47;;;;;;;22.23;6.07;;;;;;;9.25;76.75;102074.25;5066361;28;20039;-75
2023/04/26 07:11:13;;;;;;;17.92;4.80;;;;;;;9.11;76.72;102080.28;5069058;28;20109;-74
2023/04/26 07:13:39;;;;;;;12.43;3.75;;;;;;;8.84;73.58;102094.91;5069248;28;20029;-73
2023/04/26 07:16:04;;;;;;;12.33;3.60;;;;;;;8.69;74.08;102091.00;5076521;28;20036;-74
2023/04/26 07:18:30;;;;;;;17.63;4.33;;;;;;;8.43;73.34;102089.16;5075413;28;20349;-73
2023/04/26 07:20:55;;;;;;;19.67;4.32;;;;;;;8.34;72.93;102076.44;5075425;28;20031;-74
2023/04/26 07:23:21;;;;;;;13.02;4.18;;;;;;;8.40;76.03;102084.00;5073960;28;20583;-74
2023/04/26 07:25:46;;;;;;;10.30;3.78;;;;;;;8.68;75.04;102078.34;5065280;28;20471;-75
2023/04/26 07:28:11;;;;;;;7.93;3.35;;;;;;;8.77;74.74;102076.56;5076561;28;20035;-74
2023/04/26 07:30:37;;;;;;;17.23;4.63;;;;;;;8.58;72.87;102074.81;5072983;28;20042;-73
2023/04/26 07:33:02;;;;;;;8.90;3.08;;;;;;;8.38;70.12;102075.13;5076771;28;20024;-73
2023/04/26 07:35:28;;;;;;;11.98;2.97;;;;;;;8.51;70.25;102076.47;5078603;28;20028;-74
2023/04/26 07:37:53;;;;;;;10.90;3.20;;;;;;;8.56;68.40;102089.66;5077880;28;20503;-73
2023/04/26 07:40:21;;;;;;;7.32;2.72;;;;;;;8.68;68.85;102088.41;5081488;28;20028;-74
2023/04/26 07:42:47;;;;;;;6.43;2.80;;;;;;;8.92;68.43;102088.66;5065652;28;20247;-73
2023/04/26 07:45:12;;;;;;;9.85;2.20;;;;;;;9.06;67.25;102082.63;5071859;28;20044;-73
2023/04/26 07:47:37;;;;;;;8.68;1.90;;;;;;;9.28;68.61;102087.63;5071407;28;20033;-73
2023/04/26 07:50:04;;;;;;;5.65;2.00;;;;;;;9.27;67.68;102089.50;5071721;28;20028;-74
2023/04/26 07:52:29;;;;;;;6.60;1.63;;;;;;;9.22;64.91;102090.97;5066168;28;20488;-73
2023/04/26 07:54:54;;;;;;;7.87;1.80;;;;;;;9.20;64.32;102088.41;5074386;28;20028;-73
2023/04/26 07:57:20;;;;;;;3.35;1.33;;;;;;;9.22;62.57;102093.69;5072373;28;20041;-72
2023/04/26 07:59:45;;;;;;;2.55;1.20;;;;;;;9.09;63.52;102093.25;5075071;28;20031;-72
2023/04/26 08:02:10;;;;;;;5.40;1.17;;;;;;;8.87;60.51;102094.56;5073328;28;20059;-74
2023/04/26 08:04:36;;;;;;;6.10;1.30;;;;;;;8.85;60.32;102098.47;5064069;28;20067;-74
2023/04/26 08:07:01;;;;;;;7.60;1.73;;;;;;;8.85;60.87;102101.22;5074328;28;20029;-73
2023/04/26 08:09:30;;;;;;;5.05;1.27;;;;;;;8.94;61.77;102094.81;5065830;28;20025;-74
2023/04/26 08:11:56;;;;;;;4.30;1.30;;;;;;;9.27;62.84;102100.44;5057642;28;20112;-74
2023/04/26 08:14:21;;;;;;;6.97;1.88;;;;;;;9.53;60.72;102094.97;5077305;28;20099;-73
2023/04/26 08:16:47;;;;;;;7.93;1.77;;;;;;;9.89;61.68;102096.59;5072691;28;20086;-73
2023/04/26 08:19:12;;;;;;;9.43;1.87;;;;;;;10.24;61.29;102085.53;5078576;28;20482;-73
2023/04/26 08:21:37;;;;;;;3.30;1.75;;;;;;;10.54;58.29;102090.41;5077740;28;20024;-74
2023/04/26 08:24:03;;;;;;;10.25;1.70;;;;;;;10.73;57.71;102081.91;5076750;28;20103;-75
2023/04/26 08:26:28;;;;;;;8.40;1.60;;;;;;;10.98;57.23;102087.25;5077853;28;20024;-73
2023/04/26 08:28:54;;;;;;;7.00;1.60;;;;;;;11.22;54.80;102091.91;5073712;28;20456;-73
2023/04/26 08:31:21;;;;;;;6.03;2.05;;;;;;;11.49;53.92;102095.16;5073554;28;20024;-73
2023/04/26 08:33:47;;;;;;;3.28;1.42;;;;;;;11.45;52.36;102095.66;5074724;28;20151;-73
2023/04/26 08:36:12;;;;;;;7.63;1.93;;;;;;;11.45;53.68;102090.16;5078007;28;20533;-73
2023/04/26 08:38:37;;;;;;;1.40;0.90;;;;;;;10.98;51.97;102095.47;5068673;28;20039;-73
2023/04/26 08:41:04;;;;;;;9.15;3.00;;;;;;;10.69;52.64;102095.09;5076063;28;20474;-74
2023/04/26 08:43:29;;;;;;;2.83;1.42;;;;;;;10.28;53.36;102093.22;5073457;28;20435;-73
2023/04/26 08:45:57;;;;;;;5.07;1.80;;;;;;;10.24;53.57;102088.25;5076338;28;20021;-74
2023/04/26 08:48:22;;;;;;;5.50;1.48;;;;;;;9.93;53.35;102081.56;5067289;28;20505;-74
2023/04/26 08:50:49;;;;;;;4.93;1.40;;;;;;;9.70;55.61;102089.47;5075528;28;20028;-73
2023/04/26 08:53:18;;;;;;;3.03;1.40;;;;;;;9.46;57.30;102081.06;5070962;28;20174;-73
2023/04/26 08:55:50;;;;;;;10.75;1.63;;;;;;;9.45;57.82;102084.00;5076779;28;20085;-74
2023/04/26 08:58:17;;;;;;;4.88;1.65;;;;;;;9.05;55.66;102076.31;5066048;28;20419;-74
2023/04/26 09:00:44;;;;;;;9.23;1.70;;;;;;;9.20;59.08;102068.41;5063534;28;20021;-73
2023/04/26 09:03:10;;;;;;;8.43;1.60;;;;;;;9.20;58.42;102082.09;5071434;28;20182;-73
2023/04/26 09:05:38;;;;;;;6.60;1.53;;;;;;;9.06;57.64;102071.69;5062557;28;21178;-73
2023/04/26 09:08:06;;;;;;;10.48;2.63;;;;;;;9.04;59.61;102084.69;5069257;28;20541;-73
2023/04/26 09:10:32;;;;;;;6.82;1.92;;;;;;;9.24;59.08;102087.06;5068744;28;20066;-73
2023/04/26 09:12:57;;;;;;;7.85;1.83;;;;;;;9.20;60.94;102087.53;5069812;28;20060;-73
2023/04/26 09:15:26;;;;;;;8.63;1.70;;;;;;;9.14;58.40;102089.03;5078728;28;20060;-73
2023/04/26 09:17:52;;;;;;;8.55;2.15;;;;;;;8.82;58.29;102087.88;5077217;28;20115;-73
2023/04/26 09:20:28;;;;;;;8.13;2.65;;;;;;;8.86;60.52;102092.03;5084613;28;20065;-73
2023/04/26 09:23:05;;;;;;;12.30;1.92;;;;;;;8.93;59.70;102098.56;5077956;28;20072;-73
2023/04/26 09:25:31;;;;;;;7.00;2.00;;;;;;;8.87;59.36;102099.19;5082116;28;20032;-73
2023/04/26 09:27:58;;;;;;;9.05;1.90;;;;;;;8.98;60.40;102090.78;5079259;28;20044;-73
2023/04/26 09:30:24;;;;;;;6.15;2.33;;;;;;;8.95;62.24;102091.06;5076202;28;20500;-73
2023/04/26 09:33:03;;;;;;;4.70;2.30;;;;;;;8.95;62.12;102091.06;5078546;28;20040;-73
2023/04/26 09:35:41;;;;;;;11.73;2.60;;;;;;;9.08;65.07;102092.38;5078441;28;20086;-73
2023/04/26 09:38:08;;;;;;;10.07;2.42;;;;;;;8.89;64.28;102094.44;5077734;28;20400;-73
2023/04/26 09:40:35;;;;;;;4.30;2.70;;;;;;;8.90;63.89;102091.53;5079980;28;20024;-73
2023/04/26 09:43:11;;;;;;;4.20;2.53;;;;;;;9.09;65.16;102096.88;5072125;28;20041;-73
2023/04/26 09:45:51;;;;;;;17.08;3.10;;;;;;;9.27;65.63;102094.97;5076801;28;20039;-73
2023/04/26 09:48:30;;;;;;;13.32;3.42;;;;;;;9.41;65.32;102088.94;5080360;28;20055;-73
2023/04/26 09:50:58;;;;;;;7.35;2.65;;;;;;;9.47;64.56;102090.16;5076144;28;20124;-73
2023/04/26 09:53:38;;;;;;;8.35;3.15;;;;;;;9.70;64.17;102092.19;5071959;28;20020;-73
2023/04/26 09:56:07;;;;;;;7.30;2.35;;;;;;;9.71;61.94;102091.19;5082410;28;20109;-74
2023/04/26 09:58:35;;;;;;;16.15;2.70;;;;;;;9.69;60.61;102097.81;5065512;28;20064;-73
2023/04/26 10:01:02;;;;;;;9.77;3.05;;;;;;;9.72;62.03;102092.03;5075383;28;20020;-73
2023/04/26 10:03:28;;;;;;;9.60;2.67;;;;;;;9.68;61.38;102090.66;5063429;28;20493;-73
2023/04/26 10:05:53;;;;;;;13.13;2.90;;;;;;;10.01;60.34;102082.47;5072094;28;20123;-73
2023/04/26 10:08:19;;;;;;;8.82;2.53;;;;;;;10.12;59.27;102089.56;5071965;28;20078;-73
2023/04/26 10:10:46;;;;;;;10.32;2.63;;;;;;;10.40;58.74;102083.69;5070422;28;20077;-73
2023/04/26 10:13:14;;;;;;;10.68;3.05;;;;;;;10.65;60.91;102087.34;5057404;28;20029;-73
2023/04/26 10:15:40;;;;;;;7.72;2.83;;;;;;;10.60;56.57;102087.88;5066516;28;20052;-74
2023/04/26 10:18:07;;;;;;;7.85;2.90;;;;;;;10.30;56.10;102091.16;5073971;28;20562;-74
2023/04/26 10:20:34;;;;;;;7.90;2.10;;;;;;;10.07;55.79;102081.84;5081999;28;20523;-73
2023/04/26 10:23:00;;;;;;;6.97;2.80;;;;;;;10.36;55.33;102086.94;5082851;28;20526;-73
2023/04/26 10:25:39;;;;;;;10.20;2.63;;;;;;;10.73;56.96;102084.66;5078942;28;20032;-73
2023/04/26 10:28:05;;;;;;;8.32;2.08;;;;;;;10.68;55.42;102087.88;5080009;28;20028;-73
2023/04/26 10:30:31;;;;;;;7.15;2.22;;;;;;;10.37;55.50;102089.50;5079443;28;20103;-73
2023/04/26 10:32:59;;;;;;;8.37;2.90;;;;;;;10.13;57.38;102081.19;5080152;28;20138;-73
2023/04/26 10:35:26;;;;;;;5.47;1.98;;;;;;;10.36;56.66;102090.50;5076468;28;20042;-73
2023/04/26 10:38:00;;;;;;;;;;;;;;;10.35;57.42;102088.78;5068957;28;20033;-74
2023/04/26 10:40:30;;;;;;;5.63;2.53;;;;;;;10.43;56.03;102097.06;5075251;28;19917;-74
2023/04/26 10:43:17;;;;;;;5.43;2.10;;;;;;;10.63;55.58;102084.78;5071850;28;20520;-73
2023/04/26 10:45:46;;;;;;;10.63;2.38;;;;;;;10.82;56.22;102087.22;5057129;28;20040;-74
2023/04/26 10:48:31;;;;;;;15.35;2.40;;;;;;;10.80;53.86;102091.16;5076543;28;20039;-73
2023/04/26 10:51:00;;;;;;;4.95;2.05;;;;;;;10.58;55.48;102075.34;5075053;28;20045;-73
2023/04/26 10:53:30;;;;;;;6.93;2.75;;;;;;;10.51;54.70;102068.84;5072765;28;20024;-74
2023/04/26 10:55:56;;;;;;;9.23;2.80;;;;;;;10.23;55.30;102062.75;5072352;28;20048;-74
2023/04/26 10:58:28;;;;;;;11.17;2.97;;;;;;;10.58;56.46;102070.72;5067871;28;20363;-73
2023/04/26 11:01:16;;;;;;;7.13;3.08;;;;;;;10.67;56.91;102066.13;5072643;28;20028;-73
2023/04/26 11:03:42;;;;;;;8.70;2.40;;;;;;;11.06;56.25;102067.22;5070772;28;20032;-73
2023/04/26 11:06:14;;;;;;;6.95;2.83;;;;;;;11.22;56.80;102059.81;5076482;28;20400;-75
2023/04/26 11:08:40;;;;;;;4.57;2.08;;;;;;;10.90;51.62;102053.50;5072502;28;20029;-74
2023/04/26 11:11:09;;;;;;;7.27;2.10;;;;;;;11.00;53.79;102056.94;5069486;28;20051;-73
2023/04/26 11:13:39;;;;;;;8.60;2.20;;;;;;;11.13;54.30;102062.75;5065172;28;20028;-74
2023/04/26 11:16:15;;;;;;;7.35;2.10;;;;;;;11.11;54.63;102065.66;5072535;28;20035;-74
2023/04/26 11:18:43;;;;;;;4.78;1.63;;;;;;;10.84;53.05;102055.00;5064410;28;20031;-73
2023/04/26 11:21:11;;;;;;;10.55;2.58;;;;;;;10.58;53.66;102064.41;5067467;28;20079;-73